Time;durP1;ratioP1;P1;durP2;ratioP2;P2;SDS_P1;SDS_P2;PMS_P1;PMS_P2;Temp;Humidity;BMP_temperature;BMP_pressure;BME280_temperature;BME280_humidity;BME280_pressure;Samples;Min_cycle;Max_cycle;Signal;HPM_P1;HPM_P2
2022/09/08 00:02:20;;;;;;;0.73;0.40;;;;;;;28.29;nan;98976.44;5091054;28;20044;-56
2022/09/08 00:04:46;;;;;;;0.60;0.30;;;;;;;28.30;nan;98978.06;5091289;28;20055;-59
2022/09/08 00:07:11;;;;;;;0.35;0.30;;;;;;;28.29;nan;98981.25;5091456;28;20044;-56
2022/09/08 00:09:37;;;;;;;0.40;0.30;;;;;;;28.29;nan;98982.06;5090762;28;20032;-56
2022/09/08 00:12:03;;;;;;;0.50;0.30;;;;;;;28.30;nan;98977.25;5091589;28;20594;-56
2022/09/08 00:14:32;;;;;;;0.30;0.30;;;;;;;28.29;nan;98965.19;5091047;28;20048;-59
2022/09/08 00:16:58;;;;;;;0.57;0.30;;;;;;;28.29;nan;98970.81;5091132;28;20048;-59
2022/09/08 00:19:23;;;;;;;0.28;0.28;;;;;;;28.30;nan;98977.25;5091020;28;20047;-59
2022/09/08 00:21:48;;;;;;;0.70;0.35;;;;;;;28.28;nan;98965.59;5091035;28;20139;-56
2022/09/08 00:24:14;;;;;;;0.22;0.17;;;;;;;28.27;nan;98964.81;5089185;28;20089;-59
2022/09/08 00:26:40;;;;;;;0.50;0.38;;;;;;;28.24;nan;98960.09;5090789;28;20078;-58
2022/09/08 00:29:05;;;;;;;0.20;0.20;;;;;;;28.24;nan;98962.91;5090880;28;20159;-56
2022/09/08 00:31:30;;;;;;;0.28;0.22;;;;;;;28.24;nan;98971.34;5090421;28;20079;-59
2022/09/08 00:33:56;;;;;;;0.45;0.30;;;;;;;28.23;nan;98956.47;5090841;28;20492;-56
2022/09/08 00:36:22;;;;;;;0.30;0.30;;;;;;;28.25;nan;98953.22;5090720;28;20067;-59
2022/09/08 00:38:52;;;;;;;0.40;0.32;;;;;;;28.25;nan;98953.22;5090593;28;20036;-56
2022/09/08 00:41:21;;;;;;;0.57;0.40;;;;;;;28.22;nan;98960.53;5090514;28;20044;-59
2022/09/08 00:43:49;;;;;;;0.22;0.22;;;;;;;28.22;nan;98954.91;5090950;28;20488;-56
2022/09/08 00:46:29;;;;;;;0.50;0.30;;;;;;;28.24;nan;98952.44;5090682;28;20482;-59
2022/09/08 00:49:11;;;;;;;0.82;0.30;;;;;;;28.24;nan;98937.59;5090778;28;20196;-56
2022/09/08 00:51:42;;;;;;;0.20;0.20;;;;;;;28.22;nan;98948.47;5090455;28;20036;-56
2022/09/08 00:54:10;;;;;;;0.68;0.40;;;;;;;28.23;nan;98950.84;5090853;28;20055;-56
2022/09/08 00:56:39;;;;;;;0.30;0.30;;;;;;;28.22;nan;98943.66;5089121;28;20079;-56
2022/09/08 00:59:06;;;;;;;0.75;0.40;;;;;;;28.22;nan;98938.03;5090570;28;20040;-56
2022/09/08 01:01:33;;;;;;;0.40;0.30;;;;;;;28.19;nan;98929.66;5090416;28;20047;-56
2022/09/08 01:03:59;;;;;;;0.30;0.22;;;;;;;28.20;nan;98939.66;5090633;28;20119;-59
2022/09/08 01:12:44;;;;;;;0.30;0.30;;;;;;;28.21;nan;98913.91;5090475;28;20131;-59
2022/09/08 01:15:18;;;;;;;0.35;0.20;;;;;;;28.20;nan;98914.38;5088974;28;20456;-56
2022/09/08 01:17:45;;;;;;;0.50;0.40;;;;;;;28.19;nan;98910.75;5076528;28;20043;-59
2022/09/08 01:20:11;;;;;;;0.50;0.20;;;;;;;28.16;nan;98903.22;5090465;28;20565;-59
2022/09/08 01:22:58;;;;;;;0.80;0.40;;;;;;;28.20;nan;98900.31;5088832;28;20047;-56
2022/09/08 01:25:26;;;;;;;0.38;0.28;;;;;;;28.18;nan;98903.56;5080764;28;20080;-56
2022/09/08 01:28:07;;;;;;;0.32;0.28;;;;;;;28.18;nan;98899.97;5089477;28;20110;-56
2022/09/08 01:30:35;;;;;;;0.55;0.40;;;;;;;28.18;nan;98899.97;5090598;28;20401;-58
2022/09/08 01:33:05;;;;;;;0.40;0.30;;;;;;;28.18;nan;98892.31;5090081;28;20087;-56
2022/09/08 01:35:40;;;;;;;0.20;0.20;;;;;;;28.20;nan;98895.47;5090112;28;20383;-56
2022/09/08 01:38:07;;;;;;;0.25;0.20;;;;;;;28.17;nan;98878.69;5089745;28;20052;-59
2022/09/08 01:40:33;;;;;;;0.20;0.20;;;;;;;28.18;nan;98883.09;5087897;28;20462;-56
2022/09/08 01:42:58;;;;;;;0.50;0.30;;;;;;;28.17;nan;98885.09;5089881;28;20096;-56
2022/09/08 01:45:24;;;;;;;0.20;0.20;;;;;;;28.18;nan;98883.09;5075930;28;20472;-56
2022/09/08 01:47:50;;;;;;;0.20;0.20;;;;;;;28.18;nan;98888.72;5090083;28;20045;-56
2022/09/08 01:50:16;;;;;;;0.10;0.10;;;;;;;28.16;nan;98888.38;5089796;28;20080;-59
2022/09/08 01:52:42;;;;;;;0.50;0.30;;;;;;;28.14;nan;98888.00;5089971;28;20036;-56
2022/09/08 01:55:07;;;;;;;0.10;0.10;;;;;;;28.14;nan;98888.78;5089595;28;20071;-56
2022/09/08 01:57:33;;;;;;;0.22;0.22;;;;;;;28.16;nan;98899.59;5089726;28;20044;-56
2022/09/08 01:59:58;;;;;;;0.28;0.20;;;;;;;28.13;nan;98894.84;5089559;28;20409;-56
2022/09/08 02:02:23;;;;;;;0.20;0.20;;;;;;;28.15;nan;98903.66;5089237;28;20147;-56
2022/09/08 02:04:49;;;;;;;0.20;0.20;;;;;;;28.14;nan;98888.78;5089315;28;20063;-59
2022/09/08 02:07:14;;;;;;;0.17;0.17;;;;;;;28.12;nan;98887.63;5089222;28;20036;-57
2022/09/08 02:09:39;;;;;;;0.22;0.20;;;;;;;28.12;nan;98894.06;5089662;28;20179;-56
2022/09/08 02:12:05;;;;;;;0.30;0.20;;;;;;;28.10;nan;98892.91;5089184;28;20059;-59
2022/09/08 02:14:30;;;;;;;0.50;0.20;;;;;;;28.11;nan;98897.31;5089339;28;20032;-56
2022/09/08 02:16:56;;;;;;;0.47;0.20;;;;;;;28.12;nan;98890.44;5089467;28;20314;-59
2022/09/08 02:19:21;;;;;;;0.10;0.10;;;;;;;28.10;nan;98884.47;5089136;28;20718;-56
2022/09/08 02:21:47;;;;;;;0.25;0.20;;;;;;;28.10;nan;98892.91;5089566;28;20059;-56
2022/09/08 02:24:12;;;;;;;0.20;0.20;;;;;;;28.12;nan;98890.44;5089251;28;20502;-59
2022/09/08 02:26:39;;;;;;;0.30;0.20;;;;;;;28.12;nan;98890.44;5088219;28;20040;-59
2022/09/08 02:29:08;;;;;;;0.30;0.30;;;;;;;28.13;nan;98886.41;5080007;28;20068;-56
2022/09/08 02:31:34;;;;;;;0.50;0.40;;;;;;;28.12;nan;98882.00;5083961;28;20519;-59
2022/09/08 02:33:59;;;;;;;0.22;0.20;;;;;;;28.12;nan;98882.81;5074844;28;20500;-59
2022/09/08 02:36:25;;;;;;;0.40;0.20;;;;;;;28.11;nan;98877.63;5087199;28;20055;-59
2022/09/08 02:38:55;;;;;;;0.10;0.10;;;;;;;28.10;nan;98876.06;5086077;28;20129;-56
2022/09/08 02:41:21;;;;;;;0.28;0.28;;;;;;;28.09;nan;98888.53;5088978;28;20072;-59
2022/09/08 02:43:46;;;;;;;0.38;0.20;;;;;;;28.06;nan;98895.00;5089078;28;20634;-59
2022/09/08 02:46:12;;;;;;;0.20;0.20;;;;;;;28.11;nan;98897.31;5089223;28;20283;-59
2022/09/08 02:48:38;;;;;;;0.20;0.20;;;;;;;28.10;nan;98895.72;5088770;28;20037;-56
2022/09/08 02:51:06;;;;;;;0.15;0.15;;;;;;;28.09;nan;98894.16;5088733;28;20046;-56
2022/09/08 02:53:32;;;;;;;0.20;0.20;;;;;;;28.08;nan;98903.81;5089047;28;20070;-59
2022/09/08 02:55:58;;;;;;;0.40;0.20;;;;;;;28.10;nan;98901.34;5088827;28;20423;-59
2022/09/08 02:58:24;;;;;;;0.20;0.20;;;;;;;28.08;nan;98898.19;5088933;28;20467;-59
2022/09/08 03:00:50;;;;;;;0.28;0.10;;;;;;;28.09;nan;98897.75;5075564;28;20044;-56
2022/09/08 03:03:16;;;;;;;0.10;0.10;;;;;;;28.08;nan;98898.19;5089088;28;20094;-59
2022/09/08 03:05:42;;;;;;;0.20;0.15;;;;;;;28.10;nan;98901.34;5088749;28;20036;-59
2022/09/08 03:08:08;;;;;;;0.10;0.10;;;;;;;28.09;nan;98908.22;5088732;28;20051;-56
2022/09/08 03:10:35;;;;;;;0.10;0.10;;;;;;;28.07;nan;98914.25;5088720;28;20042;-56
2022/09/08 03:13:02;;;;;;;0.20;0.10;;;;;;;28.06;nan;98903.44;5088751;28;20043;-59
2022/09/08 03:15:29;;;;;;;0.20;0.20;;;;;;;28.07;nan;98913.47;5087966;28;20508;-56
2022/09/08 03:17:55;;;;;;;0.35;0.22;;;;;;;28.08;nan;98915.84;5088646;28;20067;-59
2022/09/08 03:20:22;;;;;;;2.35;0.10;;;;;;;28.08;nan;98909.44;5088238;28;20091;-59
2022/09/08 03:22:47;;;;;;;0.35;0.20;;;;;;;28.07;nan;98902.22;5088044;28;20040;-59
2022/09/08 03:25:13;;;;;;;0.20;0.10;;;;;;;28.05;nan;98913.13;5088571;28;20066;-59
2022/09/08 03:27:39;;;;;;;0.20;0.20;;;;;;;28.05;nan;98913.13;5088310;28;20085;-59
2022/09/08 03:30:07;;;;;;;0.10;0.10;;;;;;;28.05;nan;98915.91;5088610;28;20040;-59
2022/09/08 03:32:37;;;;;;;0.17;0.13;;;;;;;28.05;nan;98915.91;5086980;28;20426;-59
2022/09/08 03:35:05;;;;;;;0.20;0.20;;;;;;;28.03;nan;98913.56;5077513;28;20119;-56
2022/09/08 03:37:30;;;;;;;0.17;0.17;;;;;;;28.00;nan;98916.44;5075947;28;20631;-58
2022/09/08 03:39:56;;;;;;;0.25;0.10;;;;;;;28.04;nan;98917.94;5088461;28;20294;-55
2022/09/08 03:42:21;;;;;;;0.20;0.10;;;;;;;28.02;nan;98917.59;5088369;28;20139;-55
2022/09/08 03:44:47;;;;;;;0.20;0.20;;;;;;;28.02;nan;98926.03;5089338;28;20032;-59
2022/09/08 03:47:13;;;;;;;0.30;0.10;;;;;;;28.01;nan;98921.66;5091734;28;20130;-59
2022/09/08 03:49:38;;;;;;;0.15;0.15;;;;;;;28.02;nan;98923.22;5091371;28;20090;-56
2022/09/08 03:52:04;;;;;;;0.10;0.10;;;;;;;27.99;nan;98921.25;5091506;28;20508;-56
2022/09/08 03:54:47;;;;;;;0.13;0.10;;;;;;;28.03;nan;98938.06;5091156;28;20150;-56
2022/09/08 03:57:15;;;;;;;0.40;0.10;;;;;;;28.04;nan;98934.03;5078622;28;20050;-58
2022/09/08 03:59:41;;;;;;;0.10;0.10;;;;;;;28.04;nan;98936.84;5091650;28;20071;-58
2022/09/08 04:02:07;;;;;;;0.30;0.20;;;;;;;28.02;nan;98937.28;5090810;28;20051;-59
2022/09/08 04:04:33;;;;;;;0.30;0.17;;;;;;;28.03;nan;98938.06;5091334;28;20036;-56
2022/09/08 04:06:58;;;;;;;0.30;0.25;;;;;;;28.03;nan;98929.63;5091066;28;20040;-56
2022/09/08 04:09:24;;;;;;;0.35;0.20;;;;;;;28.01;nan;98935.69;5091529;28;20433;-56
2022/09/08 04:11:49;;;;;;;0.20;0.20;;;;;;;28.02;nan;98939.31;5091048;28;20412;-59
2022/09/08 04:14:15;;;;;;;0.10;0.10;;;;;;;28.05;nan;98938.41;5091492;28;20454;-59
2022/09/08 04:16:41;;;;;;;0.20;0.10;;;;;;;28.03;nan;98943.69;5091325;28;20055;-56
2022/09/08 04:19:08;;;;;;;0.10;0.10;;;;;;;28.02;nan;98936.50;5091012;28;20043;-56
2022/09/08 04:21:36;;;;;;;0.10;0.10;;;;;;;27.99;nan;98924.06;5091125;28;20139;-59
2022/09/08 04:24:03;;;;;;;0.45;0.30;;;;;;;28.02;nan;98928.06;5090888;28;20458;-56
2022/09/08 04:26:28;;;;;;;0.25;0.20;;;;;;;28.01;nan;98938.50;5091385;28;20167;-56
2022/09/08 04:28:54;;;;;;;0.20;0.20;;;;;;;27.98;nan;98940.16;5091089;28;20652;-59
2022/09/08 04:31:20;;;;;;;0.10;0.10;;;;;;;28.02;nan;98936.50;5091423;28;20046;-58
2022/09/08 04:33:46;;;;;;;0.10;0.10;;;;;;;28.01;nan;98941.31;5091032;28;20048;-56
2022/09/08 04:36:15;;;;;;;0.20;0.20;;;;;;;28.01;nan;98946.16;5088056;28;20036;-55
2022/09/08 04:38:40;;;;;;;0.10;0.10;;;;;;;28.01;nan;98944.13;5082675;28;20062;-56
2022/09/08 04:41:09;;;;;;;0.10;0.10;;;;;;;28.02;nan;98945.72;5090709;28;20131;-59
2022/09/08 04:43:35;;;;;;;0.20;0.20;;;;;;;28.03;nan;98940.88;5091082;28;20040;-59
2022/09/08 04:46:09;;;;;;;0.32;0.13;;;;;;;28.02;nan;98950.53;5090860;28;20085;-59
2022/09/08 04:48:36;;;;;;;0.22;0.20;;;;;;;28.03;nan;98960.56;5091112;28;20075;-59
2022/09/08 04:51:03;;;;;;;0.10;0.10;;;;;;;28.04;nan;98959.34;5091001;28;20155;-59
2022/09/08 04:53:30;;;;;;;0.10;0.10;;;;;;;28.05;nan;98969.34;5090605;28;20400;-56
2022/09/08 04:55:56;;;;;;;0.50;0.20;;;;;;;28.07;nan;98973.28;5090623;28;20048;-56
2022/09/08 04:58:22;;;;;;;0.20;0.10;;;;;;;28.08;nan;98963.66;5090675;28;20503;-56
2022/09/08 05:00:48;;;;;;;0.20;0.10;;;;;;;28.08;nan;98963.66;5090598;28;20071;-58
2022/09/08 05:03:14;;;;;;;2.90;0.20;;;;;;;28.09;nan;98967.25;5090612;28;20424;-61
2022/09/08 05:05:40;;;;;;;32.03;1.60;;;;;;;28.10;nan;98975.25;5090692;28;20051;-56
2022/09/08 05:08:06;;;;;;;39.05;2.17;;;;;;;28.12;nan;98980.44;5090640;28;20515;-56
2022/09/08 05:10:32;;;;;;;31.17;1.75;;;;;;;28.15;nan;98980.38;5090224;28;20139;-59
2022/09/08 05:12:58;;;;;;;35.65;1.80;;;;;;;28.18;nan;98981.50;5090624;28;20131;-59
2022/09/08 05:15:24;;;;;;;24.90;1.75;;;;;;;28.16;nan;98979.13;5090388;28;20036;-59
2022/09/08 05:17:49;;;;;;;24.90;2.13;;;;;;;28.16;nan;98984.75;5090078;28;20055;-56
2022/09/08 05:20:15;;;;;;;29.70;1.75;;;;;;;28.17;nan;98982.75;5088503;28;20135;-56
2022/09/08 05:22:41;;;;;;;19.55;1.50;;;;;;;28.17;nan;98980.72;5090124;28;20551;-56
2022/09/08 05:25:07;;;;;;;25.80;1.80;;;;;;;28.18;nan;98982.28;5090245;28;20048;-56
2022/09/08 05:27:32;;;;;;;19.88;1.20;;;;;;;28.20;nan;98991.09;5089945;28;20067;-59
2022/09/08 05:29:58;;;;;;;10.95;0.90;;;;;;;28.25;nan;98992.59;5090318;28;20127;-59
2022/09/08 05:32:23;;;;;;;17.08;1.10;;;;;;;28.21;nan;98989.84;5088479;28;20063;-59
2022/09/08 05:34:48;;;;;;;18.08;1.23;;;;;;;28.23;nan;98995.06;5090109;28;20560;-56
2022/09/08 05:37:14;;;;;;;7.15;0.50;;;;;;;28.25;nan;98999.00;5078738;28;20382;-56
2022/09/08 05:39:39;;;;;;;6.93;0.95;;;;;;;28.22;nan;98996.28;5088456;28;20127;-59
2022/09/08 05:42:05;;;;;;;6.32;0.82;;;;;;;28.26;nan;99011.06;5088454;28;20039;-59
2022/09/08 05:44:30;;;;;;;7.90;0.80;;;;;;;28.26;nan;99011.06;5089649;28;20572;-56
2022/09/08 05:46:56;;;;;;;9.60;0.57;;;;;;;28.28;nan;99016.22;5089358;28;20055;-56
2022/09/08 05:49:22;;;;;;;7.70;0.70;;;;;;;28.26;nan;99016.69;5089846;28;20082;-59
2022/09/08 05:51:49;;;;;;;6.18;0.50;;;;;;;28.29;nan;99020.63;5089757;28;20044;-56
2022/09/08 05:54:15;;;;;;;5.57;0.95;;;;;;;28.31;nan;99024.63;5089668;28;20048;-56
2022/09/08 05:56:41;;;;;;;12.15;0.60;;;;;;;28.29;nan;99031.88;5089540;28;20052;-56
2022/09/08 05:59:06;;;;;;;5.97;0.50;;;;;;;28.31;nan;99032.28;5089698;28;20051;-56
2022/09/08 06:01:33;;;;;;;3.95;0.40;;;;;;;28.28;nan;99030.31;5089286;28;20055;-59
2022/09/08 06:04:01;;;;;;;6.30;0.73;;;;;;;28.15;nan;99031.00;5089714;28;20065;-56
2022/09/08 06:06:27;;;;;;;8.18;0.60;;;;;;;27.96;nan;99026.97;5089696;28;20055;-59
2022/09/08 06:08:59;;;;;;;2.88;0.40;;;;;;;27.92;nan;99037.47;5088811;28;20067;-57
2022/09/08 06:11:25;;;;;;;3.78;0.50;;;;;;;27.81;nan;99039.72;5089478;28;20089;-59
2022/09/08 06:13:51;;;;;;;2.10;0.30;;;;;;;27.78;nan;99037.75;5089029;28;20055;-56
2022/09/08 06:16:17;;;;;;;2.20;0.50;;;;;;;27.74;nan;99045.47;5089296;28;20044;-56
2022/09/08 06:18:43;;;;;;;2.50;0.52;;;;;;;27.76;nan;99050.66;5089860;28;20044;-59
2022/09/08 06:21:14;;;;;;;1.65;0.38;;;;;;;27.73;nan;99049.53;5088880;28;20054;-59
2022/09/08 06:23:39;;;;;;;3.83;0.50;;;;;;;27.72;nan;99047.94;5078141;28;20040;-56
2022/09/08 06:26:26;;;;;;;1.90;0.40;;;;;;;27.72;nan;99049.94;5089515;28;20407;-59
2022/09/08 06:28:52;;;;;;;2.20;0.40;;;;;;;27.68;nan;99058.44;5076466;28;20051;-56
2022/09/08 06:31:26;;;;;;;2.97;0.50;;;;;;;27.68;nan;99052.81;5091312;28;20040;-57
2022/09/08 06:33:53;;;;;;;4.30;0.80;;;;;;;27.63;nan;99053.28;5098778;28;20511;-56
2022/09/08 06:36:27;;;;;;;4.00;0.88;;;;;;;27.62;nan;99051.69;5091421;28;20126;-59
2022/09/08 06:39:10;;;;;;;2.67;0.90;;;;;;;27.55;nan;99046.22;5086938;28;20063;-60
2022/09/08 06:41:54;;;;;;;2.53;0.98;;;;;;;27.47;nan;99056.00;5088825;28;20044;-60
2022/09/08 06:44:26;;;;;;;2.15;0.90;;;;;;;27.45;nan;99061.25;5087456;28;20059;-59
2022/09/08 06:46:54;;;;;;;2.90;1.00;;;;;;;27.36;nan;99051.38;5090852;28;20503;-59
2022/09/08 06:49:19;;;;;;;9.63;2.92;;;;;;;27.25;nan;99062.00;5074208;28;20408;-60
2022/09/08 06:52:17;;;;;;;9.90;6.75;;;;;;;27.22;nan;99053.63;5084581;28;20558;-59
2022/09/08 06:54:53;;;;;;;11.38;8.10;;;;;;;27.22;nan;99053.63;5079155;28;20059;-57
2022/09/08 06:57:43;;;;;;;10.55;7.18;;;;;;;27.21;nan;99060.44;5088372;28;20048;-59
2022/09/08 07:00:48;;;;;;;22.90;6.88;;;;;;;27.20;nan;99054.03;5084998;28;20102;-58
2022/09/08 07:03:16;;;;;;;7.63;3.92;;;;;;;27.24;nan;99059.63;5079346;28;20052;-57
2022/09/08 07:06:11;;;;;;;5.40;3.30;;;;;;;27.26;nan;99057.97;5086146;28;20117;-59
2022/09/08 07:09:07;;;;;;;6.78;2.45;;;;;;;27.28;nan;99061.13;5078064;28;20058;-59
2022/09/08 07:11:57;;;;;;;4.22;1.98;;;;;;;27.26;nan;99060.78;5076478;28;20079;-58
2022/09/08 07:15:02;;;;;;;5.85;2.22;;;;;;;27.25;nan;99064.81;5086762;28;20613;-58
2022/09/08 07:17:49;;;;;;;7.90;1.95;;;;;;;27.30;nan;99060.72;5083691;28;20503;-58
2022/09/08 07:20:15;;;;;;;5.20;1.88;;;;;;;27.32;nan;99056.25;5090525;28;20126;-57
2022/09/08 07:22:47;;;;;;;8.25;1.83;;;;;;;27.33;nan;99057.84;5083816;28;20495;-59
2022/09/08 07:25:15;;;;;;;3.50;1.33;;;;;;;27.31;nan;99057.47;5091306;28;20076;-59
2022/09/08 07:27:41;;;;;;;4.55;1.70;;;;;;;27.36;nan;99057.00;5090487;28;20086;-57
2022/09/08 07:30:14;;;;;;;3.67;1.40;;;;;;;27.32;nan;99058.28;5091370;28;20127;-59
2022/09/08 07:32:41;;;;;;;15.35;8.45;;;;;;;27.33;nan;99049.41;5089605;28;20044;-57
2022/09/08 07:35:21;;;;;;;6.05;3.65;;;;;;;27.29;nan;99045.06;5089243;28;20082;-59
2022/09/08 07:37:49;;;;;;;5.28;2.80;;;;;;;27.30;nan;99046.69;5086384;28;20102;-58
2022/09/08 07:40:16;;;;;;;5.63;2.67;;;;;;;27.32;nan;99055.47;5089836;28;20075;-58
2022/09/08 07:42:42;;;;;;;6.65;2.47;;;;;;;27.28;nan;99055.50;5083220;28;20336;-61
2022/09/08 07:45:10;;;;;;;8.20;2.08;;;;;;;27.27;nan;99055.94;5080739;28;20753;-59
2022/09/08 07:47:59;;;;;;;4.43;1.60;;;;;;;27.29;nan;99054.31;5095665;28;20466;-56
2022/09/08 07:53:46;;;;;;;3.85;1.50;;;;;;;27.38;nan;99064.97;5089756;28;20051;-62
2022/09/08 07:56:32;;;;;;;3.75;1.67;;;;;;;27.45;nan;99064.06;5088646;28;20040;-57
2022/09/08 07:59:16;;;;;;;4.07;1.40;;;;;;;27.43;nan;99062.50;5090085;28;20169;-60
2022/09/08 08:01:53;;;;;;;3.58;1.33;;;;;;;27.45;nan;99061.25;5087902;28;20044;-62
2022/09/08 08:04:38;;;;;;;5.32;1.80;;;;;;;27.49;nan;99053.53;5086229;28;20122;-57
2022/09/08 08:07:08;;;;;;;6.63;1.60;;;;;;;27.53;nan;99057.09;5084150;28;20047;-62
2022/09/08 08:10:04;;;;;;;4.18;1.42;;;;;;;27.50;nan;99055.13;5090337;28;20093;-61
2022/09/08 08:12:36;;;;;;;4.90;1.38;;;;;;;27.56;nan;99062.63;5079577;28;20055;-62
2022/09/08 08:15:10;;;;;;;3.17;1.30;;;;;;;27.58;nan;99056.59;5088065;28;20074;-61
2022/09/08 08:17:50;;;;;;;5.78;1.20;;;;;;;27.58;nan;99065.03;5090526;28;20040;-61
2022/09/08 08:20:20;;;;;;;6.28;3.65;;;;;;;27.53;nan;99065.53;5084684;28;20055;-57
2022/09/08 08:23:10;;;;;;;6.43;2.58;;;;;;;27.26;nan;99062.78;5101513;28;20075;-61
2022/09/08 08:26:00;;;;;;;6.18;3.47;;;;;;;27.32;nan;99056.25;5087922;28;20040;-62
2022/09/08 08:28:25;;;;;;;4.47;2.47;;;;;;;27.35;nan;99058.19;5088174;28;20044;-62
2022/09/08 08:31:09;;;;;;;3.58;1.77;;;;;;;27.39;nan;99058.94;5087293;28;20127;-57
2022/09/08 08:33:45;;;;;;;5.13;1.50;;;;;;;27.42;nan;99049.63;5085247;28;20427;-63
2022/09/08 08:36:15;;;;;;;2.33;1.30;;;;;;;27.50;nan;99055.13;5085751;28;20036;-64
2022/09/08 08:38:42;;;;;;;4.72;1.30;;;;;;;27.51;nan;99053.94;5086718;28;20075;-57
2022/09/08 08:41:40;;;;;;;5.00;1.33;;;;;;;27.47;nan;99048.34;5087658;28;20059;-57
2022/09/08 08:44:24;;;;;;;3.22;1.15;;;;;;;27.54;nan;99044.63;5082301;28;20043;-64
2022/09/08 08:47:37;;;;;;;3.22;1.17;;;;;;;27.56;nan;99047.78;5087646;28;20044;-65
2022/09/08 08:50:22;;;;;;;6.20;0.90;;;;;;;27.62;nan;99052.50;5062053;28;20068;-60
2022/09/08 08:53:22;;;;;;;5.13;1.20;;;;;;;27.71;nan;99040.69;5086115;28;20036;-58
2022/09/08 08:55:50;;;;;;;2.08;1.05;;;;;;;27.74;nan;99048.28;5078609;28;20052;-60
2022/09/08 08:58:52;;;;;;;5.65;0.95;;;;;;;27.73;nan;99052.34;5078440;28;20521;-62
2022/09/08 09:01:53;;;;;;;2.05;0.80;;;;;;;27.75;nan;99046.28;5082700;28;20113;-62
2022/09/08 09:04:32;;;;;;;6.85;2.20;;;;;;;27.72;nan;99042.31;5078782;28;20056;-57
2022/09/08 09:07:31;;;;;;;2.67;1.27;;;;;;;27.69;nan;99051.59;5086928;28;20073;-62
2022/09/08 09:10:07;;;;;;;3.05;1.10;;;;;;;27.69;nan;99057.22;5083514;28;20580;-62
2022/09/08 09:12:41;;;;;;;1.98;1.05;;;;;;;27.70;nan;99050.38;5087007;28;20097;-60
2022/09/08 09:15:36;;;;;;;3.08;1.20;;;;;;;27.75;nan;99043.47;5089145;28;20462;-57
2022/09/08 09:18:11;;;;;;;3.08;1.00;;;;;;;27.79;nan;99041.34;5084028;28;20041;-61
2022/09/08 09:20:39;;;;;;;3.75;1.20;;;;;;;27.82;nan;99041.31;5084013;28;20040;-61
2022/09/08 09:23:23;;;;;;;2.10;0.93;;;;;;;27.81;nan;99036.91;5085483;28;20507;-58
2022/09/08 09:25:54;;;;;;;2.20;0.90;;;;;;;27.80;nan;99032.50;5084200;28;20048;-61
2022/09/08 09:28:32;;;;;;;2.55;1.00;;;;;;;27.82;nan;99032.88;5101987;28;20036;-58
2022/09/08 09:31:06;;;;;;;1.60;0.85;;;;;;;27.79;nan;99028.13;5084163;28;20052;-60
2022/09/08 09:34:08;;;;;;;2.10;0.90;;;;;;;27.82;nan;99024.44;5084125;28;20052;-57
2022/09/08 09:36:45;;;;;;;1.90;0.90;;;;;;;27.84;nan;99024.00;5085063;28;20032;-57
2022/09/08 09:39:32;;;;;;;2.45;0.90;;;;;;;27.81;nan;99017.22;5081598;28;20130;-61
2022/09/08 09:42:06;;;;;;;3.72;1.10;;;;;;;27.83;nan;99014.78;5080815;28;20527;-61
2022/09/08 09:44:40;;;;;;;1.35;0.73;;;;;;;27.87;nan;99011.91;5085643;28;20143;-58
2022/09/08 09:47:26;;;;;;;2.03;0.90;;;;;;;27.90;nan;99003.38;5080563;28;20139;-57
2022/09/08 09:50:13;;;;;;;1.50;0.80;;;;;;;27.94;nan;99004.13;5085804;28;20119;-57
2022/09/08 09:52:58;;;;;;;3.83;1.00;;;;;;;27.99;nan;98991.56;5072249;28;20123;-61
2022/09/08 09:55:42;;;;;;;1.83;0.90;;;;;;;28.00;nan;98992.34;5078385;28;20047;-60
2022/09/08 09:58:42;;;;;;;2.58;1.02;;;;;;;28.05;nan;98994.66;5078232;28;20040;-61
2022/09/08 10:01:37;;;;;;;2.80;1.00;;;;;;;28.08;nan;98988.97;5074207;28;20055;-57
2022/09/08 10:04:21;;;;;;;1.63;0.80;;;;;;;28.08;nan;98982.56;5081822;28;20044;-57
2022/09/08 10:07:24;;;;;;;3.22;1.50;;;;;;;28.02;nan;98975.84;5083935;28;20059;-58
2022/09/08 10:10:17;;;;;;;6.28;2.17;;;;;;;28.01;nan;98966.63;5080533;28;20633;-58
2022/09/08 10:13:18;;;;;;;4.82;1.80;;;;;;;28.04;nan;98964.94;5076496;28;20044;-61
2022/09/08 10:16:05;;;;;;;3.70;1.50;;;;;;;28.01;nan;98963.03;5079898;28;20040;-61
2022/09/08 10:18:49;;;;;;;3.05;1.17;;;;;;;28.00;nan;98962.19;5076683;28;20052;-61
2022/09/08 10:21:17;;;;;;;4.15;1.40;;;;;;;27.98;nan;98959.03;5082982;28;20048;-58
2022/09/08 10:24:02;;;;;;;4.47;1.20;;;;;;;28.01;nan;98951.78;5078238;28;20040;-59
2022/09/08 10:26:51;;;;;;;2.35;1.05;;;;;;;28.03;nan;98952.13;5082554;28;20085;-62
2022/09/08 10:29:34;;;;;;;2.30;1.00;;;;;;;28.06;nan;98952.03;5086593;28;20051;-59
2022/09/08 10:32:02;;;;;;;2.38;0.80;;;;;;;28.09;nan;98956.00;5083930;28;20139;-62
2022/09/08 10:34:45;;;;;;;1.77;0.88;;;;;;;28.11;nan;98939.50;5083033;28;20044;-62
2022/09/08 10:37:51;;;;;;;2.38;0.90;;;;;;;28.14;nan;98947.03;5079853;28;20047;-61
2022/09/08 10:40:32;;;;;;;2.47;1.00;;;;;;;28.18;nan;98947.75;5084212;28;20444;-61
2022/09/08 10:43:37;;;;;;;1.77;0.75;;;;;;;28.20;nan;98937.66;5079619;28;20051;-60
2022/09/08 10:46:32;;;;;;;1.70;0.70;;;;;;;28.30;nan;98947.13;5080711;28;20409;-60
2022/09/08 10:49:16;;;;;;;1.85;0.70;;;;;;;28.33;nan;98937.00;5076528;28;20583;-60
2022/09/08 10:52:18;;;;;;;2.92;0.90;;;;;;;28.36;nan;98924.84;5082563;28;20419;-60
2022/09/08 10:55:05;;;;;;;1.53;0.70;;;;;;;28.37;nan;98932.88;5083548;28;20048;-60
2022/09/08 10:58:17;;;;;;;2.63;0.70;;;;;;;28.33;nan;98925.75;5083847;28;20170;-60
2022/09/08 11:00:48;;;;;;;1.48;0.70;;;;;;;28.21;nan;98925.16;5029286;28;20041;-60
2022/09/08 11:04:17;;;;;;;1.35;0.70;;;;;;;28.18;nan;98925.25;5027978;28;20061;-58
2022/09/08 11:07:21;;;;;;;1.27;0.60;;;;;;;28.24;nan;98926.34;5005310;28;20046;-60
2022/09/08 11:10:06;;;;;;;;;;;;;;;28.37;nan;98923.66;5018514;28;20064;-58
2022/09/08 11:13:00;;;;;;;1.63;0.90;;;;;;;28.19;nan;98913.56;5010992;28;19917;-59
2022/09/08 11:15:52;;;;;;;0.90;0.60;;;;;;;28.14;nan;98908.47;5006153;28;20046;-58
2022/09/08 11:18:36;;;;;;;1.13;0.70;;;;;;;28.19;nan;98916.38;5018000;28;20048;-59
2022/09/08 11:21:16;;;;;;;1.00;0.50;;;;;;;28.23;nan;98910.69;5005858;28;20057;-60
2022/09/08 11:24:17;;;;;;;0.80;0.60;;;;;;;28.33;nan;98920.91;5020681;28;20046;-59
2022/09/08 11:26:52;;;;;;;2.63;0.73;;;;;;;28.41;nan;98910.28;5008414;28;20045;-58
2022/09/08 11:29:19;;;;;;;2.15;0.77;;;;;;;28.45;nan;98902.56;5009038;28;20132;-60
2022/09/08 11:32:21;;;;;;;0.65;0.43;;;;;;;28.48;nan;98905.25;5033595;28;20520;-58
2022/09/08 11:35:23;;;;;;;1.20;0.60;;;;;;;28.52;nan;98905.97;5045241;28;20099;-59
2022/09/08 11:38:24;;;;;;;1.27;0.50;;;;;;;28.35;nan;98901.56;5044174;28;20084;-59
2022/09/08 11:40:59;;;;;;;4.10;0.70;;;;;;;28.36;nan;98903.19;5034997;28;20123;-59
2022/09/08 11:43:48;;;;;;;2.80;0.60;;;;;;;28.42;nan;98895.78;5078613;28;20052;-60
2022/09/08 11:46:35;;;;;;;1.17;0.60;;;;;;;28.42;nan;98884.50;5080693;28;20048;-61
2022/09/08 11:49:12;;;;;;;1.10;0.52;;;;;;;28.39;nan;98902.28;5080316;28;20116;-60
2022/09/08 11:52:04;;;;;;;1.13;0.40;;;;;;;28.38;nan;98878.19;5079558;28;20109;-61
2022/09/08 11:54:48;;;;;;;0.75;0.50;;;;;;;28.34;nan;98880.31;5079655;28;20438;-60
2022/09/08 11:57:16;;;;;;;2.42;0.50;;;;;;;28.30;nan;98878.78;5084300;28;20048;-58
2022/09/08 12:00:13;;;;;;;1.95;0.77;;;;;;;28.26;nan;98881.69;5082317;28;20455;-61
2022/09/08 12:03:23;;;;;;;2.10;0.70;;;;;;;28.26;nan;98873.25;5080622;28;20397;-58
2022/09/08 12:06:13;;;;;;;1.25;0.60;;;;;;;28.28;nan;98879.22;5041464;28;20057;-60
2022/09/08 12:09:00;;;;;;;3.13;0.70;;;;;;;28.28;nan;98873.59;5039393;28;20057;-57
2022/09/08 12:11:40;;;;;;;3.30;0.63;;;;;;;28.30;nan;98873.16;5024371;28;20062;-57
2022/09/08 12:14:31;;;;;;;1.60;0.50;;;;;;;28.33;nan;98875.13;5021819;28;20124;-59
2022/09/08 12:17:08;;;;;;;1.08;0.52;;;;;;;28.35;nan;98884.69;5026804;28;20037;-57
2022/09/08 12:19:58;;;;;;;0.73;0.50;;;;;;;28.37;nan;98879.44;5026260;28;20144;-57
2022/09/08 12:22:37;;;;;;;0.80;0.50;;;;;;;28.32;nan;98868.69;5019679;28;20516;-62
2022/09/08 12:25:17;;;;;;;2.42;0.77;;;;;;;28.36;nan;98871.41;5022492;28;20052;-62
2022/09/08 12:27:45;;;;;;;0.75;0.47;;;;;;;28.37;nan;98865.38;5028060;28;20430;-57
2022/09/08 12:30:20;;;;;;;1.45;0.55;;;;;;;28.40;nan;98864.47;5027757;28;20042;-57
2022/09/08 12:32:51;;;;;;;1.75;0.63;;;;;;;28.42;nan;98867.63;5023038;28;20631;-57
2022/09/08 12:35:29;;;;;;;0.90;0.50;;;;;;;28.43;nan;98866.44;5023645;28;20141;-57
2022/09/08 12:38:20;;;;;;;1.20;0.57;;;;;;;28.42;nan;98872.47;5025166;28;20504;-57